Titusville, FL (32780)

10:04 AM EDT on August 28, 2016 (GMT -0400)
Spring Valley | | Change Station
Active Advisory: Coastal Hazard Statement

Elev 39 ft 28.57 °N, 80.83 °W | Updated 10 seconds ago

Scattered Clouds
Scattered Clouds
86.7 °F
Feels Like 102 °F
N
3.6
Wind Variable Wind from East
Gusts 4.9 mph

Today
High -- | Low -- °F
--% Chance of Precip.
Yesterday
High -- | Low -- °F
Precip. -- in
Pressure 30.01 in
Visibility 7.0 miles
Clouds Scattered Clouds 2200 ft
Heat Index 102 °F
Dew Point 80 °F
Humidity 80%
Rainfall 0.00 in
Snow Depth Not available.
6:59 AM 7:48 PM
Waning Crescent, 15% visible
METAR KTIX 281350Z 08012KT 7SM SCT022 30/27 A3001
Pressure 30.01 in
Visibility 7.0 miles
Clouds Scattered Clouds 2200 ft
Heat Index 102 °F
Dew Point 80 °F
Humidity 80%
Rainfall 0.00 in
Snow Depth Not available.
6:59 AM 7:48 PM
Waning Crescent, 15% visible
METAR KTIX 281350Z 08012KT 7SM SCT022 30/27 A3001

10-Day Weather Forecast

Almanac

Astronomy

Aug. 28, 2016 Rise Set
Actual Time
Civil Twilight
Nautical Twilight
Astronomical Twilight
Moon
Length of Visible Light
Length of Day
Tomorrow will be .
, % of the Moon is Illuminated

Today's Extremes

State Highs State Lows

Community

WunderPhotos

Upload Photos

1,935,569 photos uploaded!

WunderBlog® & News

Nearby

Air Quality

  Air Quality AQ Index Pollutant
Not available.

Snow Depth

Station Depth Elevation

Earthquake Activity

City Distance Mag. Time & Date
Minimum magnitude displayed is 2.5.

Coastal Water Temperatures

Place Temperature

Stations

Nearby Weather Stations

Station Location Temp. Windchill Dew Point Humidity Wind Precip. Elev Updated Type
                   

Watches & Warnings

Coastal Hazard Statement
Issued: 3:59 AM EDT Aug. 28, 2016 – National Weather Service

... High rip current risk in effect through this evening...

The National Weather Service in Melbourne has issued a high rip
current risk... which is in effect through this evening.

* Timing... the threat for rip currents will be in place all day,
however, it will be highest between 900 am and 300 PM due to
tidal effects.

* Impacts... the seaward pull of rip currents can be life
threatening. Only swim in the ocean near a lifeguard.

Precautionary/preparedness actions...

Rip currents are powerful channels of water flowing quickly away
from shore... which occur most often at low spots or breaks in The
Sandbar and in the vicinity of structures such as jetties and
piers. Heed the advice of lifeguards... beach patrol flags and
signs.

If you become caught in a rip current... remain calm and Yell for
help. Do not exhaust yourself and stay afloat while waiting for
help. If you have to swim out of a rip current... swim parallel to
shore and back toward the beach when possible. Do not attempt to
swim directly against a rip current as you will tire quickly.



Ulrich